createdAt,value
2022-12-08T00:00:23.073Z,96500.88
2022-12-08T00:01:26.363Z,96500.56
2022-12-08T00:02:28.389Z,96502.03
2022-12-08T00:03:30.602Z,96497.69
2022-12-08T00:04:52.481Z,96497.69
2022-12-08T00:06:12.858Z,96498.66
2022-12-08T00:07:33.083Z,96497.19
2022-12-08T00:08:53.249Z,96491.25
2022-12-08T00:09:55.101Z,96498.66
2022-12-08T00:10:56.943Z,96495.75
2022-12-08T00:12:00.033Z,96491.25
2022-12-08T00:13:01.875Z,96495.25
2022-12-08T00:14:03.791Z,96492.88
2022-12-08T00:15:06.248Z,96487.38
2022-12-08T00:16:08.506Z,96490.59
2022-12-08T00:17:11.547Z,96487.72
2022-12-08T00:18:13.391Z,96483.22
2022-12-08T00:19:16.317Z,96489.03
2022-12-08T00:20:18.337Z,96482.91
2022-12-08T00:21:20.344Z,96486.25
2022-12-08T00:22:22.253Z,96479.38
2022-12-08T00:23:24.103Z,96486.44
2022-12-08T00:24:29.642Z,96478.22
2022-12-08T00:25:32.277Z,96477.44
2022-12-08T00:26:34.077Z,96475.00
2022-12-08T00:27:35.915Z,96477.09
2022-12-08T00:28:37.801Z,96472.75
2022-12-08T00:29:39.773Z,96466.47
2022-12-08T00:30:42.429Z,96473.53
2022-12-08T00:31:44.444Z,96469.66
2022-12-08T00:32:46.277Z,96476.91
2022-12-08T00:33:48.143Z,96468.38
2022-12-08T00:34:50.053Z,96468.22
2022-12-08T00:35:51.966Z,96468.38
2022-12-08T00:36:53.835Z,96465.16
2022-12-08T00:38:00.585Z,96471.41
2022-12-08T00:39:02.989Z,96469.81
2022-12-08T00:40:05.266Z,96468.06
2022-12-08T00:41:09.319Z,96464.19
2022-12-08T00:42:13.831Z,96460.50
2022-12-08T00:43:15.829Z,96467.28
2022-12-08T00:44:21.241Z,96464.53
2022-12-08T00:45:24.305Z,96459.56
2022-12-08T00:46:26.311Z,96463.88
2022-12-08T00:47:28.172Z,96465.34
2022-12-08T00:48:30.112Z,96463.25
2022-12-08T00:49:31.952Z,96458.75
2022-12-08T00:50:34.340Z,96455.22
2022-12-08T00:51:36.189Z,96461.81
2022-12-08T00:52:38.118Z,96466.31
2022-12-08T00:53:40.030Z,96460.38
2022-12-08T00:54:41.976Z,96460.22
2022-12-08T00:55:43.986Z,96463.59
2022-12-08T00:56:46.607Z,96463.28
2022-12-08T00:57:48.538Z,96464.88
2022-12-08T00:58:50.497Z,96463.09
2022-12-08T00:59:52.420Z,96465.22
2022-12-08T01:00:54.471Z,96463.09
2022-12-08T01:01:56.348Z,96463.72
2022-12-08T01:02:58.209Z,96463.44
2022-12-08T01:04:04.539Z,96467.78
2022-12-08T01:05:06.653Z,96468.56
2022-12-08T01:06:08.745Z,96456.50
2022-12-08T01:07:10.629Z,96457.31
2022-12-08T01:08:12.538Z,96459.72
2022-12-08T01:09:15.481Z,96457.94
2022-12-08T01:10:17.448Z,96459.56
2022-12-08T01:11:20.004Z,96462.00
2022-12-08T01:12:21.836Z,96457.00
2022-12-08T01:13:23.794Z,96460.38
2022-12-08T01:14:25.804Z,96459.44
2022-12-08T01:15:27.699Z,96456.66
2022-12-08T01:16:31.369Z,96461.00
2022-12-08T01:17:33.236Z,96455.72
2022-12-08T01:18:35.741Z,96449.13
2022-12-08T01:19:37.587Z,96457.50
2022-12-08T01:20:39.393Z,96452.16
2022-12-08T01:21:41.966Z,96457.97
2022-12-08T01:22:43.917Z,96445.28
2022-12-08T01:23:46.084Z,96453.78
2022-12-08T01:24:47.897Z,96453.63
2022-12-08T01:25:49.692Z,96444.16
2022-12-08T01:26:52.163Z,96446.88
2022-12-08T01:27:54.120Z,96447.84
2022-12-08T01:28:55.987Z,96446.88
2022-12-08T01:29:57.886Z,96441.72
2022-12-08T01:31:00.475Z,96439.63
2022-12-08T01:32:02.475Z,96440.44
2022-12-08T01:33:04.382Z,96435.94
2022-12-08T01:34:06.412Z,96437.56
2022-12-08T01:35:08.567Z,96439.16
2022-12-08T01:36:18.726Z,96442.69
2022-12-08T01:37:20.835Z,96439.94
2022-12-08T01:38:23.197Z,96432.41
2022-12-08T01:39:25.103Z,96432.41
2022-12-08T01:40:27.013Z,96433.22
2022-12-08T01:41:30.835Z,96437.38
2022-12-08T01:42:35.405Z,96432.06
2022-12-08T01:43:45.840Z,96433.69
2022-12-08T01:44:52.810Z,96430.13
2022-12-08T01:45:55.462Z,96423.41
2022-12-08T01:46:57.340Z,96424.69
2022-12-08T01:48:03.250Z,96420.50
2022-12-08T01:49:05.066Z,96423.06
2022-12-08T01:50:09.042Z,96424.69
2022-12-08T01:51:11.035Z,96427.25
2022-12-08T01:52:16.342Z,96423.84
2022-12-08T01:53:21.450Z,96416.97
2022-12-08T01:54:24.992Z,96424.69
2022-12-08T01:55:30.596Z,96410.84
2022-12-08T01:56:35.952Z,96409.88
2022-12-08T01:57:42.025Z,96412.47
2022-12-08T01:58:45.851Z,96408.13
2022-12-08T01:59:51.601Z,96412.63
2022-12-08T02:00:53.518Z,96409.56
2022-12-08T02:01:55.655Z,96403.75
2022-12-08T02:03:08.455Z,96409.88
2022-12-08T02:04:10.856Z,96415.69
2022-12-08T02:05:13.205Z,96408.59
2022-12-08T02:06:15.828Z,96403.59
2022-12-08T02:07:18.163Z,96410.19
2022-12-08T02:08:20.389Z,96410.19
2022-12-08T02:09:23.456Z,96408.56
2022-12-08T02:10:28.667Z,96406.63
2022-12-08T02:11:30.541Z,96400.84
2022-12-08T02:12:32.499Z,96400.19
2022-12-08T02:13:34.590Z,96402.97
2022-12-08T02:14:36.573Z,96404.69
2022-12-08T02:15:56.984Z,96398.59
2022-12-08T02:17:12.227Z,96396.69
2022-12-08T02:18:19.944Z,96395.41
2022-12-08T02:19:31.765Z,96391.84
2022-12-08T02:20:43.017Z,96393.91
2022-12-08T02:21:47.848Z,96397.59
2022-12-08T02:22:52.699Z,96388.28
2022-12-08T02:24:00.437Z,96386.19
2022-12-08T02:25:02.290Z,96382.16
2022-12-08T02:26:04.140Z,96386.66
2022-12-08T02:27:08.950Z,96388.09
2022-12-08T02:28:29.539Z,96386.50
2022-12-08T02:29:43.366Z,96384.53
2022-12-08T02:31:02.143Z,96388.25
2022-12-08T02:32:19.326Z,96386.00
2022-12-08T02:33:41.430Z,96388.91
2022-12-08T02:34:53.551Z,96382.16
2022-12-08T02:36:01.321Z,96382.16
2022-12-08T02:37:18.376Z,96382.78
2022-12-08T02:38:39.085Z,96382.94
2022-12-08T02:39:50.763Z,96379.56
2022-12-08T02:41:11.206Z,96378.63
2022-12-08T02:42:18.830Z,96380.88
2022-12-08T02:43:26.640Z,96385.84
2022-12-08T02:44:31.556Z,96378.94
2022-12-08T02:45:39.964Z,96383.78
2022-12-08T02:46:46.974Z,96379.06
2022-12-08T02:47:49.208Z,96377.00
2022-12-08T02:48:52.117Z,96377.66
2022-12-08T02:49:55.755Z,96382.78
2022-12-08T02:50:57.587Z,96381.03
2022-12-08T02:52:06.753Z,96375.41
2022-12-08T02:54:09.550Z,96380.84
2022-12-08T02:55:14.438Z,96377.47
2022-12-08T02:56:34.928Z,96380.97
2022-12-08T02:57:42.495Z,96377.28
2022-12-08T02:59:08.873Z,96370.91
2022-12-08T03:00:18.846Z,96384.06
2022-12-08T03:01:30.208Z,96370.28
2022-12-08T03:02:40.982Z,96372.84
2022-12-08T03:03:49.960Z,96369.44
2022-12-08T03:05:05.820Z,96373.00
2022-12-08T03:06:13.468Z,96373.00
2022-12-08T03:07:22.132Z,96370.28
2022-12-08T03:08:32.870Z,96366.22
2022-12-08T03:09:37.907Z,96358.06
2022-12-08T03:10:45.578Z,96363.78
2022-12-08T03:11:59.073Z,96364.13
2022-12-08T03:13:13.225Z,96363.78
2022-12-08T03:14:17.094Z,96362.69
2022-12-08T03:15:20.575Z,96365.91
2022-12-08T03:16:26.597Z,96363.34
2022-12-08T03:17:29.860Z,96357.22
2022-12-08T03:18:34.566Z,96350.63
2022-12-08T03:19:39.085Z,96349.19
2022-12-08T03:20:41.402Z,96350.00
2022-12-08T03:21:46.069Z,96349.00
2022-12-08T03:22:50.139Z,96354.16
2022-12-08T03:23:54.453Z,96355.78
2022-12-08T03:24:57.055Z,96357.69
2022-12-08T03:26:02.479Z,96349.50
2022-12-08T03:27:07.907Z,96350.47
2022-12-08T03:28:10.135Z,96343.72
2022-12-08T03:29:12.611Z,96346.13
2022-12-08T03:30:14.561Z,96342.56
2022-12-08T03:31:18.767Z,96343.53
2022-12-08T03:32:33.898Z,96345.13
2022-12-08T03:33:40.663Z,96337.28
2022-12-08T03:34:44.490Z,96343.22
2022-12-08T03:35:46.805Z,96344.97
2022-12-08T03:36:48.672Z,96339.19
2022-12-08T03:37:51.011Z,96342.75
2022-12-08T03:38:53.814Z,96347.56
2022-12-08T03:39:56.435Z,96330.38
2022-12-08T03:41:16.589Z,96337.13
2022-12-08T03:42:18.513Z,96336.16
2022-12-08T03:43:20.420Z,96335.34
2022-12-08T03:44:22.476Z,96338.25
2022-12-08T03:45:24.472Z,96331.66
2022-12-08T03:47:29.632Z,96331.97
2022-12-08T03:48:31.512Z,96333.91
2022-12-08T03:49:33.409Z,96337.41
2022-12-08T03:50:35.339Z,96334.69
2022-12-08T03:51:37.179Z,96332.78
2022-12-08T03:52:39.564Z,96332.63
2022-12-08T03:53:41.398Z,96331.66
2022-12-08T03:54:43.241Z,96331.66
2022-12-08T03:55:45.189Z,96326.50
2022-12-08T03:56:47.036Z,96333.25
2022-12-08T03:57:48.940Z,96334.06
2022-12-08T03:58:50.989Z,96328.13
2022-12-08T03:59:52.863Z,96328.78
2022-12-08T04:00:54.723Z,96327.16
2022-12-08T04:01:56.759Z,96324.75
2022-12-08T04:02:59.326Z,96322.19
2022-12-08T04:04:01.219Z,96321.38
2022-12-08T04:05:03.163Z,96319.78
2022-12-08T04:06:05.266Z,96321.53
2022-12-08T04:07:07.237Z,96322.34
2022-12-08T04:08:09.153Z,96314.63
2022-12-08T04:09:11.078Z,96316.22
2022-12-08T04:10:12.960Z,96317.34
2022-12-08T04:11:14.882Z,96322.63
2022-12-08T04:12:16.714Z,96313.00
2022-12-08T04:13:18.894Z,96325.72
2022-12-08T04:14:20.955Z,96326.50
2022-12-08T04:15:22.911Z,96319.44
2022-12-08T04:16:25.556Z,96321.88
2022-12-08T04:17:27.441Z,96316.56
2022-12-08T04:18:29.354Z,96326.69
2022-12-08T04:19:31.196Z,96323.00
2022-12-08T04:20:32.984Z,96318.00
2022-12-08T04:21:34.855Z,96325.88
2022-12-08T04:22:36.713Z,96320.72
2022-12-08T04:23:38.860Z,96319.94
2022-12-08T04:24:40.753Z,96318.81
2022-12-08T04:25:42.652Z,96324.78
2022-12-08T04:26:44.550Z,96320.09
2022-12-08T04:27:46.382Z,96320.75
2022-12-08T04:28:48.454Z,96323.31
2022-12-08T04:29:50.329Z,96314.66
2022-12-08T04:30:52.146Z,96309.53
2022-12-08T04:31:54.108Z,96321.44
2022-12-08T04:32:55.948Z,96317.53
2022-12-08T04:33:57.826Z,96324.28
2022-12-08T04:34:59.729Z,96324.94
2022-12-08T04:36:02.484Z,96321.44
2022-12-08T04:37:04.366Z,96322.22
2022-12-08T04:38:06.248Z,96318.03
2022-12-08T04:39:08.130Z,96318.19
2022-12-08T04:40:10.386Z,96318.19
2022-12-08T04:41:12.267Z,96314.66
2022-12-08T04:42:14.090Z,96318.84
2022-12-08T04:43:16.168Z,96320.75
2022-12-08T04:44:18.058Z,96322.53
2022-12-08T04:45:20.769Z,96322.22
2022-12-08T04:46:22.743Z,96325.44
2022-12-08T04:47:24.713Z,96319.16
2022-12-08T04:48:26.944Z,96321.75
2022-12-08T04:49:28.831Z,96315.94
2022-12-08T04:50:30.649Z,96313.72
2022-12-08T04:51:32.592Z,96317.22
2022-12-08T04:52:34.615Z,96317.22
2022-12-08T04:53:36.488Z,96313.88
2022-12-08T04:54:38.468Z,96311.28
2022-12-08T04:55:45.044Z,96313.03
2022-12-08T04:56:46.937Z,96313.22
2022-12-08T04:57:49.019Z,96320.09
2022-12-08T04:58:50.978Z,96312.56
2022-12-08T04:59:52.890Z,96321.09
2022-12-08T05:00:54.849Z,96311.44
2022-12-08T05:01:56.905Z,96313.03
2022-12-08T05:02:58.936Z,96320.09
2022-12-08T05:04:00.747Z,96314.16
2022-12-08T05:05:02.719Z,96312.41
2022-12-08T05:06:05.368Z,96311.75
2022-12-08T05:07:07.249Z,96307.44
2022-12-08T05:08:10.421Z,96313.03
2022-12-08T05:09:12.460Z,96310.31
2022-12-08T05:10:14.421Z,96311.94
2022-12-08T05:11:16.318Z,96313.38
2022-12-08T05:12:18.143Z,96311.31
2022-12-08T05:13:20.023Z,96313.72
2022-12-08T05:14:21.872Z,96310.19
2022-12-08T05:15:23.782Z,96311.81
2022-12-08T05:16:25.667Z,96315.00
2022-12-08T05:17:27.649Z,96310.66
2022-12-08T05:18:29.531Z,96314.84
2022-12-08T05:19:31.391Z,96302.81
2022-12-08T05:20:34.692Z,96311.47
2022-12-08T05:21:36.653Z,96309.88
2022-12-08T05:22:38.451Z,96313.25
2022-12-08T05:23:40.292Z,96305.38
2022-12-08T05:24:47.187Z,96306.97
2022-12-08T05:25:49.929Z,96308.41
2022-12-08T05:26:51.806Z,96307.63
2022-12-08T05:28:06.228Z,96308.41
2022-12-08T05:29:15.413Z,96308.41
2022-12-08T05:30:17.264Z,96307.31
2022-12-08T05:31:19.196Z,96305.38
2022-12-08T05:32:21.081Z,96305.38
2022-12-08T05:33:22.958Z,96313.72
2022-12-08T05:34:24.791Z,96304.09
2022-12-08T05:35:26.680Z,96306.16
2022-12-08T05:36:28.557Z,96302.16
2022-12-08T05:37:30.316Z,96301.31
2022-12-08T05:38:32.159Z,96302.47
2022-12-08T05:39:34.098Z,96307.31
2022-12-08T05:40:37.428Z,96308.59
2022-12-08T05:41:39.572Z,96302.47
2022-12-08T05:42:41.637Z,96301.34
2022-12-08T05:43:43.499Z,96308.59
2022-12-08T05:44:45.417Z,96304.41
2022-12-08T05:45:47.371Z,96310.53
2022-12-08T05:46:49.450Z,96303.44
2022-12-08T05:47:53.166Z,96306.94
2022-12-08T05:48:54.971Z,96304.38
2022-12-08T05:49:56.831Z,96298.75
2022-12-08T05:50:58.758Z,96311.75
2022-12-08T05:52:00.606Z,96307.91
2022-12-08T05:53:02.543Z,96304.09
2022-12-08T05:54:04.465Z,96311.16
2022-12-08T05:55:06.573Z,96304.38
2022-12-08T05:56:08.482Z,96303.75
2022-12-08T05:57:10.368Z,96306.31
2022-12-08T05:58:16.298Z,96308.22
2022-12-08T05:59:18.798Z,96315.28
2022-12-08T06:00:21.013Z,96315.78
2022-12-08T06:01:24.530Z,96307.59
2022-12-08T06:02:26.967Z,96312.56
2022-12-08T06:03:29.402Z,96309.53
2022-12-08T06:04:31.481Z,96312.59
2022-12-08T06:05:34.032Z,96307.13
2022-12-08T06:06:36.811Z,96305.84
2022-12-08T06:07:38.701Z,96310.19
2022-12-08T06:08:40.589Z,96304.88
2022-12-08T06:09:42.522Z,96301.97
2022-12-08T06:10:45.385Z,96294.09
2022-12-08T06:11:47.532Z,96302.16
2022-12-08T06:12:49.425Z,96290.41
2022-12-08T06:13:51.758Z,96296.03
2022-12-08T06:14:53.614Z,96295.72
2022-12-08T06:15:55.485Z,96295.41
2022-12-08T06:16:57.500Z,96296.38
2022-12-08T06:17:59.341Z,96294.75
2022-12-08T06:19:01.222Z,96296.81
2022-12-08T06:20:04.032Z,96300.88
2022-12-08T06:21:07.637Z,96297.47
2022-12-08T06:22:09.398Z,96292.69
2022-12-08T06:23:11.236Z,96294.91
2022-12-08T06:24:13.251Z,96295.56
2022-12-08T06:25:15.394Z,96298.78
2022-12-08T06:26:17.323Z,96295.75
2022-12-08T06:27:19.195Z,96296.53
2022-12-08T06:28:21.056Z,96294.91
2022-12-08T06:29:22.871Z,96300.25
2022-12-08T06:30:25.041Z,96301.34
2022-12-08T06:31:27.133Z,96304.09
2022-12-08T06:32:29.043Z,96304.41
2022-12-08T06:33:31.012Z,96302.47
2022-12-08T06:34:32.829Z,96293.63
2022-12-08T06:35:34.715Z,96294.28
2022-12-08T06:36:37.385Z,96292.19
2022-12-08T06:37:39.282Z,96287.69
2022-12-08T06:38:43.591Z,96299.25
2022-12-08T06:39:46.497Z,96292.34
2022-12-08T06:40:53.680Z,96298.13
2022-12-08T06:42:14.239Z,96291.88
2022-12-08T06:43:16.087Z,96296.69
2022-12-08T06:44:17.917Z,96292.69
2022-12-08T06:45:20.260Z,96293.81
2022-12-08T06:46:22.271Z,96295.25
2022-12-08T06:47:26.373Z,96298.63
2022-12-08T06:48:28.437Z,96300.25
2022-12-08T06:49:30.279Z,96299.09
2022-12-08T06:50:32.888Z,96299.09
2022-12-08T06:51:34.767Z,96294.47
2022-12-08T06:52:43.195Z,96301.84
2022-12-08T06:53:50.025Z,96299.91
2022-12-08T06:54:52.001Z,96301.84
2022-12-08T06:56:01.060Z,96298.31
2022-12-08T06:57:03.099Z,96295.41
2022-12-08T06:58:04.967Z,96295.25
2022-12-08T06:59:06.937Z,96306.66
2022-12-08T07:00:09.207Z,96295.56
2022-12-08T07:01:12.246Z,96296.03
2022-12-08T07:02:14.295Z,96300.88
2022-12-08T07:03:16.391Z,96300.88
2022-12-08T07:04:18.482Z,96299.59
2022-12-08T07:05:20.295Z,96297.97
2022-12-08T07:06:23.652Z,96305.03
2022-12-08T07:07:27.420Z,96298.63
2022-12-08T07:08:29.610Z,96296.69
2022-12-08T07:09:31.632Z,96297.34
2022-12-08T07:10:33.640Z,96303.75
2022-12-08T07:11:35.510Z,96304.25
2022-12-08T07:12:38.432Z,96302.63
2022-12-08T07:13:40.596Z,96293.97
2022-12-08T07:14:42.478Z,96292.84
2022-12-08T07:15:44.405Z,96299.59
2022-12-08T07:16:46.322Z,96292.34
2022-12-08T07:17:48.880Z,96289.78
2022-12-08T07:18:50.809Z,96291.25
2022-12-08T07:19:52.685Z,96289.31
2022-12-08T07:20:54.587Z,96285.75
2022-12-08T07:21:56.489Z,96290.91
2022-12-08T07:22:58.450Z,96287.38
2022-12-08T07:24:00.233Z,96280.31
2022-12-08T07:25:02.133Z,96289.97
2022-12-08T07:26:04.838Z,96292.34
2022-12-08T07:27:06.700Z,96290.59
2022-12-08T07:28:12.499Z,96289.31
2022-12-08T07:29:14.421Z,96290.25
2022-12-08T07:30:16.280Z,96286.09
2022-12-08T07:31:24.027Z,96293.63
2022-12-08T07:32:25.873Z,96291.25
2022-12-08T07:33:27.928Z,96288.50
2022-12-08T07:34:29.875Z,96291.25
2022-12-08T07:35:34.253Z,96291.06
2022-12-08T07:36:36.856Z,96282.25
2022-12-08T07:37:39.923Z,96285.47
2022-12-08T07:38:42.396Z,96285.47
2022-12-08T07:39:44.603Z,96283.53
2022-12-08T07:40:46.490Z,96293.16
2022-12-08T07:41:48.418Z,96281.41
2022-12-08T07:42:50.462Z,96281.91
2022-12-08T07:43:53.949Z,96282.06
2022-12-08T07:44:56.014Z,96285.28
2022-12-08T07:45:58.182Z,96286.75
2022-12-08T07:47:00.139Z,96288.03
2022-12-08T07:48:02.196Z,96293.16
2022-12-08T07:49:06.534Z,96284.81
2022-12-08T07:50:08.802Z,96290.25
2022-12-08T07:51:11.828Z,96295.25
2022-12-08T07:52:13.750Z,96287.19
2022-12-08T07:53:15.821Z,96283.34
2022-12-08T07:54:17.943Z,96277.09
2022-12-08T07:55:20.137Z,96282.56
2022-12-08T07:56:22.613Z,96284.19
2022-12-08T07:57:24.519Z,96285.91
2022-12-08T07:58:26.732Z,96279.81
2022-12-08T07:59:28.771Z,96284.00
2022-12-08T08:00:30.650Z,96283.69
2022-12-08T08:01:33.672Z,96282.06
2022-12-08T08:02:35.649Z,96282.88
2022-12-08T08:03:37.719Z,96280.31
2022-12-08T08:04:39.779Z,96280.13
2022-12-08T08:05:43.048Z,96285.75
2022-12-08T08:06:44.998Z,96283.19
2022-12-08T08:07:48.615Z,96284.00
2022-12-08T08:08:50.792Z,96279.03
2022-12-08T08:09:52.772Z,96279.97
2022-12-08T08:10:54.771Z,96275.81
2022-12-08T08:12:29.153Z,96282.41
2022-12-08T08:13:18.916Z,96275.19
2022-12-08T08:14:21.092Z,96280.97
2022-12-08T08:15:23.102Z,96285.75
2022-12-08T08:16:25.269Z,96277.91
2022-12-08T08:17:27.799Z,96283.53
2022-12-08T08:18:29.856Z,96280.97
2022-12-08T08:19:31.758Z,96287.06
2022-12-08T08:20:33.981Z,96283.84
2022-12-08T08:21:45.518Z,96282.25
2022-12-08T08:22:48.528Z,96287.38
2022-12-08T08:23:50.410Z,96288.03
2022-12-08T08:24:52.454Z,96290.59
2022-12-08T08:25:54.484Z,96290.91
2022-12-08T08:26:56.472Z,96293.31
2022-12-08T08:27:58.473Z,96298.78
2022-12-08T08:29:00.320Z,96290.25
2022-12-08T08:30:03.317Z,96297.34
2022-12-08T08:31:06.255Z,96293.81
2022-12-08T08:32:08.464Z,96293.47
2022-12-08T08:33:11.058Z,96288.34
2022-12-08T08:34:12.969Z,96286.91
2022-12-08T08:35:14.889Z,96289.47
2022-12-08T08:36:16.850Z,96284.81
2022-12-08T08:37:18.996Z,96288.34
2022-12-08T08:38:22.098Z,96291.25
2022-12-08T08:39:24.151Z,96293.63
2022-12-08T08:40:26.160Z,96296.53
2022-12-08T08:41:28.103Z,96290.75
2022-12-08T08:42:30.185Z,96297.34
2022-12-08T08:43:37.751Z,96291.56
2022-12-08T08:44:40.280Z,96294.75
2022-12-08T08:45:43.165Z,96291.56
2022-12-08T08:46:45.290Z,96287.84
2022-12-08T08:47:47.433Z,96286.56
2022-12-08T08:48:49.355Z,96293.63
2022-12-08T08:49:51.290Z,96293.97
2022-12-08T08:50:53.800Z,96287.84
2022-12-08T08:51:55.677Z,96291.41
2022-12-08T08:52:58.044Z,96291.88
2022-12-08T08:54:00.104Z,96293.81
2022-12-08T08:55:02.166Z,96287.06
2022-12-08T08:56:05.494Z,96295.59
2022-12-08T08:57:07.508Z,96293.81
2022-12-08T08:58:09.446Z,96289.31
2022-12-08T08:59:11.495Z,96287.69
2022-12-08T09:00:13.732Z,96296.03
2022-12-08T09:01:16.743Z,96288.97
2022-12-08T09:02:19.612Z,96291.09
2022-12-08T09:03:21.586Z,96287.38
2022-12-08T09:04:23.824Z,96289.16
2022-12-08T09:05:26.273Z,96292.69
2022-12-08T09:06:30.881Z,96289.16
2022-12-08T09:07:32.915Z,96288.50
2022-12-08T09:08:35.016Z,96293.66
2022-12-08T09:09:36.919Z,96292.66
2022-12-08T09:10:38.897Z,96291.06
2022-12-08T09:11:41.140Z,96285.44
2022-12-08T09:12:43.139Z,96288.00
2022-12-08T09:13:47.639Z,96290.25
2022-12-08T09:14:49.625Z,96284.00
2022-12-08T09:15:51.789Z,96287.34
2022-12-08T09:16:53.901Z,96287.31
2022-12-08T09:17:55.802Z,96286.19
2022-12-08T09:18:57.822Z,96282.50
2022-12-08T09:19:59.817Z,96284.25
2022-12-08T09:21:15.304Z,96287.31
2022-12-08T09:22:17.242Z,96280.22
2022-12-08T09:23:19.202Z,96280.22
2022-12-08T09:24:22.130Z,96281.22
2022-12-08T09:25:24.150Z,96285.69
2022-12-08T09:26:26.755Z,96281.97
2022-12-08T09:27:28.707Z,96277.47
2022-12-08T09:28:30.698Z,96281.81
2022-12-08T09:29:36.243Z,96281.78
2022-12-08T09:30:38.475Z,96280.00
2022-12-08T09:31:40.535Z,96277.91
2022-12-08T09:32:42.531Z,96274.66
2022-12-08T09:33:44.692Z,96268.34
2022-12-08T09:34:52.075Z,96263.69
2022-12-08T09:35:54.730Z,96267.38
2022-12-08T09:36:56.732Z,96259.63
2022-12-08T09:37:58.645Z,96268.00
2022-12-08T09:39:00.666Z,96266.38
2022-12-08T09:40:03.565Z,96261.41
2022-12-08T09:41:14.117Z,96261.06
2022-12-08T09:42:22.895Z,96255.75
2022-12-08T09:43:24.752Z,96258.97
2022-12-08T09:44:38.983Z,96256.84
2022-12-08T09:45:41.394Z,96253.47
2022-12-08T09:46:43.965Z,96239.63
2022-12-08T09:47:49.053Z,96245.25
2022-12-08T09:48:56.195Z,96246.84
2022-12-08T09:50:12.290Z,96245.19
2022-12-08T09:51:15.423Z,96245.94
2022-12-08T09:52:25.848Z,96239.63
2022-12-08T09:53:44.671Z,96241.09
2022-12-08T09:54:46.700Z,96244.47
2022-12-08T09:55:51.358Z,96240.09
2022-12-08T09:56:56.169Z,96235.41
2022-12-08T09:58:01.798Z,96234.72
2022-12-08T09:59:06.679Z,96236.31
2022-12-08T10:00:12.893Z,96234.38
2022-12-08T10:01:15.301Z,96234.03
2022-12-08T10:02:22.535Z,96230.66
2022-12-08T10:03:27.740Z,96234.56
2022-12-08T10:04:35.304Z,96230.38
2022-12-08T10:05:40.041Z,96232.44
2022-12-08T10:06:44.991Z,96226.56
2022-12-08T10:08:01.230Z,96229.44
2022-12-08T10:09:23.018Z,96224.41
2022-12-08T10:10:34.098Z,96217.19
2022-12-08T10:11:41.403Z,96218.69
2022-12-08T10:12:52.379Z,96220.78
2022-12-08T10:14:17.643Z,96214.56
2022-12-08T10:15:38.042Z,96215.00
2022-12-08T10:16:42.241Z,96218.84
2022-12-08T10:17:54.098Z,96209.97
2022-12-08T10:18:58.257Z,96206.88
2022-12-08T10:20:03.515Z,96207.97
2022-12-08T10:21:11.978Z,96207.81
2022-12-08T10:22:25.540Z,96199.44
2022-12-08T10:23:33.867Z,96204.41
2022-12-08T10:24:39.260Z,96204.75
2022-12-08T10:25:53.130Z,96198.50
2022-12-08T10:26:55.725Z,96194.63
2022-12-08T10:27:58.944Z,96193.28
2022-12-08T10:29:03.130Z,96190.25
2022-12-08T10:30:14.725Z,96191.25
2022-12-08T10:31:21.406Z,96189.47
2022-12-08T10:32:24.153Z,96183.97
2022-12-08T10:33:26.110Z,96182.81
2022-12-08T10:34:28.258Z,96183.28
2022-12-08T10:35:45.123Z,96185.47
2022-12-08T10:36:49.608Z,96177.75
2022-12-08T10:37:59.041Z,96180.50
2022-12-08T10:39:01.684Z,96180.69
2022-12-08T10:40:06.787Z,96175.97
2022-12-08T10:41:11.886Z,96168.84
2022-12-08T10:42:22.389Z,96179.00
2022-12-08T10:43:28.057Z,96173.03
2022-12-08T10:45:38.184Z,96168.78
2022-12-08T10:46:40.105Z,96169.44
2022-12-08T10:47:45.310Z,96157.66
2022-12-08T10:48:49.204Z,96156.88
2022-12-08T10:50:07.610Z,96160.06
2022-12-08T10:51:21.905Z,96152.16
2022-12-08T10:52:24.647Z,96150.91
2022-12-08T10:53:28.905Z,96152.41
2022-12-08T10:54:34.839Z,96146.47
2022-12-08T10:55:41.347Z,96137.28
2022-12-08T10:56:53.242Z,96144.84
2022-12-08T10:57:55.545Z,96149.66
2022-12-08T10:59:15.170Z,96146.56
2022-12-08T11:00:19.427Z,96143.44
2022-12-08T11:01:35.721Z,96140.69
2022-12-08T11:02:37.661Z,96136.69
2022-12-08T11:03:45.979Z,96138.28
2022-12-08T11:04:48.036Z,96136.31
2022-12-08T11:05:50.044Z,96134.91
2022-12-08T11:06:52.509Z,96141.06
2022-12-08T11:07:55.402Z,96136.78
2022-12-08T11:08:58.562Z,96128.22
2022-12-08T11:10:01.515Z,96131.06
2022-12-08T11:11:03.635Z,96128.31
2022-12-08T11:12:18.538Z,96128.78
2022-12-08T11:13:24.735Z,96119.25
2022-12-08T11:14:28.792Z,96122.28
2022-12-08T11:15:39.250Z,96127.25
2022-12-08T11:16:42.936Z,96117.91
2022-12-08T11:17:52.139Z,96120.66
2022-12-08T11:18:57.350Z,96114.97
2022-12-08T11:20:11.363Z,96125.75
2022-12-08T11:21:17.736Z,96112.03
2022-12-08T11:22:24.506Z,96115.78
2022-12-08T11:23:26.943Z,96117.38
2022-12-08T11:24:32.316Z,96110.25
2022-12-08T11:25:36.554Z,96119.00
2022-12-08T11:26:40.223Z,96111.06
2022-12-08T11:27:44.755Z,96109.81
2022-12-08T11:28:46.794Z,96104.03
2022-12-08T11:29:48.693Z,96104.31
2022-12-08T11:30:55.126Z,96101.19
2022-12-08T11:32:01.910Z,96107.97
2022-12-08T11:33:14.839Z,96099.59
2022-12-08T11:34:37.879Z,96100.72
2022-12-08T11:35:41.687Z,96088.81
2022-12-08T11:36:43.635Z,96095.22
2022-12-08T11:37:46.314Z,96095.69
2022-12-08T11:38:50.878Z,96095.13
2022-12-08T11:39:55.706Z,96098.50
2022-12-08T11:41:01.202Z,96098.06
2022-12-08T11:42:03.908Z,96090.53
2022-12-08T11:43:07.346Z,96086.94
2022-12-08T11:44:28.169Z,96088.34
2022-12-08T11:45:33.580Z,96092.56
2022-12-08T11:46:38.556Z,96083.81
2022-12-08T11:47:45.435Z,96088.19
2022-12-08T11:48:55.372Z,96089.81
2022-12-08T11:50:18.339Z,96082.47
2022-12-08T11:51:24.450Z,96087.56
2022-12-08T11:52:42.372Z,96084.00
2022-12-08T11:54:13.640Z,96080.06
2022-12-08T11:55:21.309Z,96074.47
2022-12-08T11:56:28.219Z,96075.91
2022-12-08T11:57:30.229Z,96072.94
2022-12-08T11:58:46.135Z,96066.59
2022-12-08T11:59:50.387Z,96068.56
2022-12-08T12:00:52.579Z,96070.00
2022-12-08T12:01:54.527Z,96061.88
2022-12-08T12:03:05.633Z,96059.91
2022-12-08T12:04:19.425Z,96056.72
2022-12-08T12:05:47.525Z,96056.09
2022-12-08T12:07:09.501Z,96052.72
2022-12-08T12:08:17.534Z,96050.78
2022-12-08T12:09:25.337Z,96056.78
2022-12-08T12:10:45.692Z,96058.56
2022-12-08T12:12:08.642Z,96057.06
2022-12-08T12:13:10.470Z,96051.31
2022-12-08T12:14:32.503Z,96050.97
2022-12-08T12:15:36.313Z,96054.41
2022-12-08T12:16:41.052Z,96059.44
2022-12-08T12:17:49.818Z,96054.78
2022-12-08T12:18:58.450Z,96051.13
2022-12-08T12:20:03.562Z,96049.03
2022-12-08T12:21:06.352Z,96053.53
2022-12-08T12:22:18.597Z,96048.66
2022-12-08T12:23:23.349Z,96050.75
2022-12-08T12:24:35.995Z,96048.25
2022-12-08T12:25:38.777Z,96052.50
2022-12-08T12:26:52.198Z,96057.75
2022-12-08T12:27:57.657Z,96053.81
2022-12-08T12:29:05.510Z,96057.72
2022-12-08T12:30:09.756Z,96047.19
2022-12-08T12:31:14.123Z,96051.81
2022-12-08T12:32:16.232Z,96044.28
2022-12-08T12:33:19.810Z,96040.31
2022-12-08T12:34:24.260Z,96037.31
2022-12-08T12:35:35.086Z,96045.50
2022-12-08T12:36:54.351Z,96039.94
2022-12-08T12:37:58.269Z,96043.91
2022-12-08T12:39:01.517Z,96033.56
2022-12-08T12:40:07.894Z,96033.34
2022-12-08T12:41:11.120Z,96031.75